createdAt,value
2019-03-24T00:01:48.805Z,40.97
2019-03-24T00:04:19.317Z,42.33
2019-03-24T00:06:49.589Z,38.47
2019-03-24T00:09:19.845Z,49.03
2019-03-24T00:11:50.131Z,44.13
2019-03-24T00:14:20.369Z,43.83
2019-03-24T00:16:50.681Z,46.70
2019-03-24T00:19:21.027Z,41.27
2019-03-24T00:21:51.303Z,34.43
2019-03-24T00:24:21.589Z,40.40
2019-03-24T00:26:51.846Z,38.87
2019-03-24T00:29:22.128Z,34.57
2019-03-24T00:31:52.379Z,35.93
2019-03-24T00:34:22.653Z,37.83
2019-03-24T00:36:52.902Z,30.20
2019-03-24T00:39:23.409Z,35.77
2019-03-24T00:41:53.665Z,41.13
2019-03-24T00:44:23.919Z,41.33
2019-03-24T00:46:54.229Z,38.30
2019-03-24T00:49:25.138Z,32.57
2019-03-24T00:51:55.425Z,30.40
2019-03-24T00:54:25.676Z,29.83
2019-03-24T00:56:55.952Z,25.33
2019-03-24T00:59:26.200Z,25.87
2019-03-24T01:01:56.459Z,28.90
2019-03-24T01:04:26.741Z,24.53
2019-03-24T01:06:56.977Z,25.40
2019-03-24T01:09:27.229Z,29.23
2019-03-24T01:11:57.511Z,28.67
2019-03-24T01:14:27.786Z,23.93
2019-03-24T01:16:58.064Z,28.47
2019-03-24T01:19:28.393Z,23.50
2019-03-24T01:21:58.633Z,30.73
2019-03-24T01:24:28.916Z,23.57
2019-03-24T01:26:59.191Z,25.53
2019-03-24T01:29:29.465Z,22.70
2019-03-24T01:32:00.020Z,34.13
2019-03-24T01:34:30.261Z,30.47
2019-03-24T01:37:02.246Z,28.83
2019-03-24T01:39:32.491Z,25.10
2019-03-24T01:42:02.769Z,27.47
2019-03-24T01:44:34.173Z,24.73
2019-03-24T01:47:04.697Z,26.80
2019-03-24T01:49:34.977Z,32.20
2019-03-24T01:52:05.287Z,29.60
2019-03-24T01:54:36.822Z,24.30
2019-03-24T01:57:07.127Z,28.40
2019-03-24T01:59:37.389Z,27.47
2019-03-24T02:02:07.640Z,25.03
2019-03-24T02:04:37.886Z,24.70
2019-03-24T02:07:08.133Z,27.17
2019-03-24T02:09:38.376Z,27.33
2019-03-24T02:12:08.660Z,24.80
2019-03-24T02:14:38.896Z,22.67
2019-03-24T02:17:09.141Z,29.67
2019-03-24T02:19:39.422Z,22.80
2019-03-24T02:22:09.697Z,28.80
2019-03-24T02:24:39.975Z,18.83
2019-03-24T02:27:10.269Z,21.33
2019-03-24T02:29:40.520Z,19.97
2019-03-24T02:32:10.822Z,22.67
2019-03-24T02:34:41.074Z,28.00
2019-03-24T02:37:11.330Z,23.70
2019-03-24T02:39:41.618Z,25.93
2019-03-24T02:42:11.895Z,28.87
2019-03-24T02:44:42.691Z,27.60
2019-03-24T02:47:13.194Z,20.07
2019-03-24T02:49:43.492Z,26.10
2019-03-24T02:52:13.748Z,25.27
2019-03-24T02:54:43.999Z,19.20
2019-03-24T02:57:14.265Z,18.37
2019-03-24T02:59:44.819Z,25.80
2019-03-24T03:02:15.096Z,19.53
2019-03-24T03:04:45.348Z,24.30
2019-03-24T03:07:15.628Z,24.30
2019-03-24T03:09:45.904Z,25.93
2019-03-24T03:12:16.402Z,20.33
2019-03-24T03:14:46.653Z,16.73
2019-03-24T03:17:16.954Z,15.83
2019-03-24T03:19:47.204Z,18.37
2019-03-24T03:22:17.499Z,28.87
2019-03-24T03:24:47.787Z,16.83
2019-03-24T03:27:18.079Z,16.40
2019-03-24T03:29:48.364Z,22.10
2019-03-24T03:32:18.646Z,24.77
2019-03-24T03:34:48.893Z,21.37
2019-03-24T03:37:19.177Z,21.73
2019-03-24T03:39:49.440Z,23.03
2019-03-24T03:42:19.714Z,19.63
2019-03-24T03:44:50.252Z,17.00
2019-03-24T03:47:20.530Z,18.97
2019-03-24T03:49:50.777Z,19.90
2019-03-24T03:52:21.053Z,21.83
2019-03-24T03:54:51.505Z,27.23
2019-03-24T03:57:21.794Z,18.57
2019-03-24T03:59:52.040Z,21.07
2019-03-24T04:02:23.773Z,21.03
2019-03-24T04:04:54.058Z,17.10
2019-03-24T04:07:24.304Z,18.80
2019-03-24T04:09:54.597Z,16.30
2019-03-24T04:12:24.846Z,20.20
2019-03-24T04:14:55.135Z,15.23
2019-03-24T04:17:25.987Z,20.13
2019-03-24T04:19:56.903Z,16.83
2019-03-24T04:22:27.162Z,21.97
2019-03-24T04:24:57.410Z,19.27
2019-03-24T04:27:27.691Z,17.50
2019-03-24T04:29:57.952Z,20.00
2019-03-24T04:32:28.235Z,25.10
2019-03-24T04:34:58.805Z,21.17
2019-03-24T04:37:29.060Z,20.40
2019-03-24T04:39:59.610Z,22.27
2019-03-24T04:42:29.880Z,22.10
2019-03-24T04:45:00.258Z,26.17
2019-03-24T04:47:30.586Z,17.57
2019-03-24T04:50:00.876Z,17.73
2019-03-24T04:52:31.162Z,20.90
2019-03-24T04:55:01.440Z,20.60
2019-03-24T04:57:31.833Z,21.73
2019-03-24T05:00:03.063Z,23.30
2019-03-24T05:02:33.341Z,24.73
2019-03-24T05:05:04.215Z,16.93
2019-03-24T05:07:34.510Z,23.27
2019-03-24T05:10:14.224Z,21.77
2019-03-24T05:12:44.497Z,24.53
2019-03-24T05:15:14.743Z,23.43
2019-03-24T05:17:44.998Z,26.60
2019-03-24T05:20:15.285Z,25.60
2019-03-24T05:22:46.621Z,23.70
2019-03-24T05:25:17.386Z,25.23
2019-03-24T05:27:47.638Z,19.27
2019-03-24T05:30:17.890Z,24.67
2019-03-24T05:32:48.143Z,28.57
2019-03-24T05:35:19.365Z,20.20
2019-03-24T05:37:49.635Z,26.47
2019-03-24T05:40:19.920Z,25.27
2019-03-24T05:42:50.178Z,24.57
2019-03-24T05:45:20.458Z,22.53
2019-03-24T05:47:50.739Z,19.67
2019-03-24T05:50:21.038Z,22.23
2019-03-24T05:52:51.283Z,25.53
2019-03-24T05:55:21.576Z,21.10
2019-03-24T05:57:51.862Z,21.73
2019-03-24T06:00:22.137Z,22.43
2019-03-24T06:02:52.439Z,22.13
2019-03-24T06:05:22.727Z,28.10
2019-03-24T06:07:53.266Z,22.37
2019-03-24T06:10:23.999Z,20.37
2019-03-24T06:12:54.277Z,17.30
2019-03-24T06:15:24.523Z,19.17
2019-03-24T06:17:55.776Z,20.57
2019-03-24T06:20:26.054Z,25.87
2019-03-24T06:22:56.318Z,21.87
2019-03-24T06:25:26.606Z,24.37
2019-03-24T06:27:56.858Z,35.57
2019-03-24T06:30:27.140Z,33.70
2019-03-24T06:32:57.441Z,32.23
2019-03-24T06:35:28.459Z,27.10
2019-03-24T06:37:58.702Z,23.57
2019-03-24T06:40:28.944Z,17.03
2019-03-24T06:42:59.654Z,21.53
2019-03-24T06:45:29.913Z,21.73
2019-03-24T06:48:00.147Z,16.77
2019-03-24T06:50:30.388Z,22.10
2019-03-24T06:53:00.628Z,17.80
2019-03-24T06:55:30.910Z,16.93
2019-03-24T06:58:01.150Z,16.43
2019-03-24T07:00:31.431Z,19.73
2019-03-24T07:03:01.679Z,15.57
2019-03-24T07:05:32.905Z,13.80
2019-03-24T07:08:03.494Z,14.43
2019-03-24T07:10:33.744Z,10.97
2019-03-24T07:13:03.994Z,16.37
2019-03-24T07:15:34.284Z,17.33
2019-03-24T07:18:08.595Z,13.60
2019-03-24T07:20:36.513Z,19.77
2019-03-24T07:23:06.790Z,19.23
2019-03-24T07:25:37.054Z,12.80
2019-03-24T07:28:07.294Z,19.37
2019-03-24T07:30:37.533Z,14.83
2019-03-24T07:33:07.810Z,17.10
2019-03-24T07:35:38.079Z,19.40
2019-03-24T07:38:08.325Z,13.93
2019-03-24T07:40:38.599Z,16.17
2019-03-24T07:43:08.838Z,13.23
2019-03-24T07:45:39.080Z,20.17
2019-03-24T07:48:18.679Z,21.50
2019-03-24T07:50:41.309Z,16.47
2019-03-24T07:53:11.585Z,21.97
2019-03-24T07:55:41.937Z,15.83
2019-03-24T07:58:12.208Z,18.53
2019-03-24T08:00:43.623Z,19.73
2019-03-24T08:03:13.873Z,16.90
2019-03-24T08:05:44.144Z,14.23
2019-03-24T08:08:14.419Z,20.67
2019-03-24T08:10:44.870Z,18.80
2019-03-24T08:13:15.143Z,20.57
2019-03-24T08:15:45.392Z,14.57
2019-03-24T08:18:15.922Z,12.37
2019-03-24T08:20:47.827Z,13.33
2019-03-24T08:23:18.095Z,15.57
2019-03-24T08:25:48.350Z,16.80
2019-03-24T08:28:18.632Z,19.73
2019-03-24T08:30:48.918Z,21.60
2019-03-24T08:33:19.186Z,18.70
2019-03-24T08:35:49.460Z,14.27
2019-03-24T08:38:19.739Z,16.10
2019-03-24T08:40:49.982Z,17.17
2019-03-24T08:43:20.258Z,16.67
2019-03-24T08:45:50.504Z,15.37
2019-03-24T08:48:20.783Z,17.80
2019-03-24T08:50:51.044Z,14.77
2019-03-24T08:53:21.314Z,13.17
2019-03-24T08:55:51.569Z,13.97
2019-03-24T08:58:21.818Z,14.43
2019-03-24T09:00:52.076Z,15.73
2019-03-24T09:03:22.476Z,10.20
2019-03-24T09:05:52.717Z,14.20
2019-03-24T09:08:22.958Z,17.00
2019-03-24T09:10:53.234Z,15.63
2019-03-24T09:13:23.948Z,16.63
2019-03-24T09:15:54.188Z,12.53
2019-03-24T09:18:24.460Z,15.00
2019-03-24T09:20:54.731Z,21.70
2019-03-24T09:23:25.003Z,15.73
2019-03-24T09:25:55.247Z,16.63
2019-03-24T09:28:26.361Z,16.57
2019-03-24T09:30:56.606Z,14.93
2019-03-24T09:33:26.886Z,14.30
2019-03-24T09:35:57.132Z,13.27
2019-03-24T09:38:27.372Z,13.70
2019-03-24T09:40:57.881Z,15.30
2019-03-24T09:43:28.124Z,15.17
2019-03-24T09:45:58.400Z,17.40
2019-03-24T09:48:28.862Z,16.60
2019-03-24T09:50:59.097Z,9.57
2019-03-24T09:53:29.340Z,18.13
2019-03-24T09:55:59.608Z,14.23
2019-03-24T09:58:29.853Z,11.43
2019-03-24T10:01:00.113Z,13.43
2019-03-24T10:03:30.395Z,15.97
2019-03-24T10:06:00.750Z,10.73
2019-03-24T10:08:31.031Z,20.73
2019-03-24T10:11:01.317Z,13.93
2019-03-24T10:13:31.554Z,16.40
2019-03-24T10:16:01.802Z,22.20
2019-03-24T10:18:32.072Z,15.57
2019-03-24T10:21:02.661Z,10.07
2019-03-24T10:23:32.951Z,18.70
2019-03-24T10:26:03.235Z,16.80
2019-03-24T10:28:33.513Z,14.70
2019-03-24T10:31:03.757Z,11.93
2019-03-24T10:33:34.019Z,14.37
2019-03-24T10:36:04.270Z,12.63
2019-03-24T10:38:34.532Z,13.67
2019-03-24T10:41:04.811Z,14.90
2019-03-24T10:43:35.053Z,9.83
2019-03-24T10:46:05.321Z,13.00
2019-03-24T10:48:35.941Z,12.17
2019-03-24T10:51:06.184Z,18.57
2019-03-24T10:53:36.455Z,13.00
2019-03-24T10:56:06.709Z,11.63
2019-03-24T10:58:36.965Z,11.17
2019-03-24T11:01:07.691Z,10.00
2019-03-24T11:03:37.980Z,10.63
2019-03-24T11:06:08.254Z,9.50
2019-03-24T11:08:38.536Z,11.77
2019-03-24T11:11:08.981Z,11.40
2019-03-24T11:13:39.232Z,13.63
2019-03-24T11:16:09.495Z,11.60
2019-03-24T11:18:39.772Z,10.47
2019-03-24T11:21:10.072Z,11.33
2019-03-24T11:23:40.361Z,12.90
2019-03-24T11:26:10.646Z,10.90
2019-03-24T11:28:40.937Z,10.23
2019-03-24T11:31:11.187Z,28.00
2019-03-24T11:33:41.472Z,12.47
2019-03-24T11:36:11.758Z,10.87
2019-03-24T11:38:42.034Z,14.43
2019-03-24T11:41:12.311Z,10.73
2019-03-24T11:43:42.559Z,16.53
2019-03-24T11:46:12.841Z,9.93
2019-03-24T11:48:43.090Z,13.07
2019-03-24T11:51:13.372Z,12.43
2019-03-24T11:53:43.631Z,11.77
2019-03-24T11:56:13.905Z,14.27
2019-03-24T11:58:44.209Z,8.63
2019-03-24T12:01:14.585Z,9.53
2019-03-24T12:03:45.094Z,10.03
2019-03-24T12:06:15.789Z,9.43
2019-03-24T12:08:46.114Z,12.33
2019-03-24T12:11:16.364Z,8.70
2019-03-24T12:13:46.657Z,12.10
2019-03-24T12:16:17.011Z,11.17
2019-03-24T12:18:47.301Z,11.90
2019-03-24T12:21:17.582Z,9.87
2019-03-24T12:23:47.830Z,15.23
2019-03-24T12:26:18.095Z,9.10
2019-03-24T12:28:48.383Z,10.53
2019-03-24T12:31:18.677Z,12.30
2019-03-24T12:33:48.924Z,9.90
2019-03-24T12:36:19.211Z,10.33
2019-03-24T12:38:49.498Z,14.87
2019-03-24T12:41:19.797Z,10.97
2019-03-24T12:43:50.081Z,11.63
2019-03-24T12:46:20.345Z,9.37
2019-03-24T12:48:50.636Z,9.10
2019-03-24T12:51:20.949Z,8.30
2019-03-24T12:53:51.234Z,10.07
2019-03-24T12:56:21.497Z,8.40
2019-03-24T12:58:51.752Z,11.43
2019-03-24T13:01:22.049Z,12.90
2019-03-24T13:03:54.101Z,12.17
2019-03-24T13:06:24.410Z,11.00
2019-03-24T13:08:54.644Z,8.57
2019-03-24T13:11:24.918Z,8.03
2019-03-24T13:13:55.220Z,10.93
2019-03-24T13:16:25.470Z,8.77
2019-03-24T13:18:55.741Z,11.07
2019-03-24T13:21:26.031Z,9.43
2019-03-24T13:23:56.318Z,10.70
2019-03-24T13:26:26.611Z,7.80
2019-03-24T13:28:56.846Z,7.93
2019-03-24T13:31:27.106Z,8.60
2019-03-24T13:33:57.366Z,8.93
2019-03-24T13:36:27.646Z,7.20
2019-03-24T13:38:58.177Z,8.67
2019-03-24T13:41:28.450Z,9.20
2019-03-24T13:43:59.523Z,10.77
2019-03-24T13:46:29.875Z,10.90
2019-03-24T13:49:00.173Z,11.80
2019-03-24T13:51:30.675Z,12.13
2019-03-24T13:54:00.933Z,11.57
2019-03-24T13:56:31.218Z,9.33
2019-03-24T13:59:01.480Z,9.23
2019-03-24T14:01:31.728Z,10.17
2019-03-24T14:04:01.987Z,11.83
2019-03-24T14:06:32.257Z,12.73
2019-03-24T14:09:04.192Z,13.33
2019-03-24T14:11:34.521Z,8.27
2019-03-24T14:14:04.882Z,9.03
2019-03-24T14:16:35.158Z,14.67
2019-03-24T14:19:05.691Z,15.67
2019-03-24T14:21:35.943Z,11.77
2019-03-24T14:24:06.207Z,11.70
2019-03-24T14:26:36.503Z,9.13
2019-03-24T14:29:06.776Z,8.40
2019-03-24T14:31:37.060Z,12.27
2019-03-24T14:34:07.315Z,10.50
2019-03-24T14:36:37.629Z,9.60
2019-03-24T14:39:08.178Z,10.00
2019-03-24T14:41:38.731Z,11.10
2019-03-24T14:44:08.975Z,7.73
2019-03-24T14:46:39.267Z,10.43
2019-03-24T14:49:09.538Z,7.00
2019-03-24T14:51:39.840Z,10.57
2019-03-24T14:54:10.117Z,9.17
2019-03-24T14:56:40.373Z,10.23
2019-03-24T14:59:10.622Z,9.50
2019-03-24T15:01:40.937Z,10.53
2019-03-24T15:04:11.186Z,11.60
2019-03-24T15:06:41.440Z,9.93
2019-03-24T15:09:11.697Z,11.27
2019-03-24T15:11:41.960Z,11.30
2019-03-24T15:14:12.231Z,11.33
2019-03-24T15:16:42.524Z,8.17
2019-03-24T15:19:12.770Z,8.83
2019-03-24T15:21:43.077Z,14.03
2019-03-24T15:24:13.629Z,12.10
2019-03-24T15:26:44.172Z,13.50
2019-03-24T15:29:14.430Z,11.93
2019-03-24T15:31:44.681Z,20.83
2019-03-24T15:34:14.974Z,16.67
2019-03-24T15:36:45.257Z,9.73
2019-03-24T15:39:16.517Z,18.27
2019-03-24T15:41:46.769Z,15.43
2019-03-24T15:44:17.084Z,12.77
2019-03-24T15:46:47.369Z,15.73
2019-03-24T15:49:17.650Z,10.90
2019-03-24T15:51:47.898Z,9.20
2019-03-24T15:54:18.162Z,8.73
2019-03-24T15:56:48.450Z,13.73
2019-03-24T15:59:18.738Z,9.57
2019-03-24T16:01:49.023Z,14.77
2019-03-24T16:04:19.340Z,6.23
2019-03-24T16:06:49.618Z,8.03
2019-03-24T16:09:19.882Z,7.73
2019-03-24T16:11:50.166Z,6.67
2019-03-24T16:14:20.625Z,7.37
2019-03-24T16:16:50.876Z,9.27
2019-03-24T16:19:21.129Z,8.67
2019-03-24T16:21:51.679Z,7.50
2019-03-24T16:24:22.692Z,5.70
2019-03-24T16:26:52.961Z,9.13
2019-03-24T16:29:23.213Z,8.23
2019-03-24T16:31:53.468Z,8.37
2019-03-24T16:34:23.792Z,13.57
2019-03-24T16:36:54.052Z,9.63
2019-03-24T16:39:24.409Z,8.20
2019-03-24T16:41:54.661Z,9.13
2019-03-24T16:44:24.906Z,7.53
2019-03-24T16:46:55.553Z,9.13
2019-03-24T16:49:26.005Z,8.70
2019-03-24T16:51:56.349Z,7.33
2019-03-24T16:54:26.696Z,7.87
2019-03-24T16:56:56.943Z,8.47
2019-03-24T16:59:27.196Z,8.20
2019-03-24T17:01:57.452Z,8.97
2019-03-24T17:04:27.759Z,7.10
2019-03-24T17:06:58.051Z,7.27
2019-03-24T17:09:28.398Z,11.07
2019-03-24T17:11:58.702Z,7.43
2019-03-24T17:14:29.006Z,13.20
2019-03-24T17:16:59.238Z,9.17
2019-03-24T17:19:29.508Z,8.90
2019-03-24T17:21:59.784Z,8.30
2019-03-24T17:24:30.047Z,9.00
2019-03-24T17:27:00.680Z,11.63
2019-03-24T17:29:30.933Z,8.90
2019-03-24T17:32:01.174Z,7.77
2019-03-24T17:34:31.717Z,9.37
2019-03-24T17:37:01.966Z,10.33
2019-03-24T17:39:32.312Z,7.77
2019-03-24T17:42:02.584Z,8.47
2019-03-24T17:44:32.935Z,5.37
2019-03-24T17:47:03.211Z,7.57
2019-03-24T17:49:34.350Z,7.20
2019-03-24T17:52:04.923Z,6.87
2019-03-24T17:54:35.252Z,7.50
2019-03-24T17:57:05.783Z,14.13
2019-03-24T17:59:36.132Z,27.87
2019-03-24T18:02:14.207Z,46.43
2019-03-24T18:04:38.711Z,85.97
2019-03-24T18:07:09.000Z,109.13
2019-03-24T18:09:39.286Z,112.10
2019-03-24T18:12:09.638Z,104.53
2019-03-24T18:14:39.922Z,92.77
2019-03-24T18:17:10.452Z,27.97
2019-03-24T18:19:40.690Z,32.13
2019-03-24T18:22:11.858Z,98.63
2019-03-24T18:24:42.552Z,40.80
2019-03-24T18:27:12.798Z,35.70
2019-03-24T18:29:43.094Z,20.10
2019-03-24T18:32:13.364Z,20.27
2019-03-24T18:34:43.634Z,20.63
2019-03-24T18:37:13.885Z,19.87
2019-03-24T18:39:44.248Z,23.37
2019-03-24T18:42:14.642Z,16.30
2019-03-24T18:44:44.882Z,16.57
2019-03-24T18:47:15.181Z,13.27
2019-03-24T18:49:45.488Z,18.47
2019-03-24T18:52:22.558Z,22.47
2019-03-24T18:54:47.700Z,16.00
2019-03-24T18:57:17.956Z,14.47
2019-03-24T18:59:49.168Z,16.50
2019-03-24T19:02:19.417Z,16.40
2019-03-24T19:04:49.718Z,13.93
2019-03-24T19:07:19.966Z,19.97
2019-03-24T19:09:50.292Z,18.90
2019-03-24T19:12:20.569Z,18.80
2019-03-24T19:14:50.855Z,19.43
2019-03-24T19:17:21.388Z,16.80
2019-03-24T19:19:51.668Z,18.73
2019-03-24T19:22:21.936Z,18.50
2019-03-24T19:24:52.210Z,20.63
2019-03-24T19:27:22.452Z,28.77
2019-03-24T19:29:52.727Z,23.57
2019-03-24T19:32:23.734Z,25.40
2019-03-24T19:34:53.974Z,27.60
2019-03-24T19:37:24.495Z,28.10
2019-03-24T19:39:54.777Z,28.77
2019-03-24T19:42:25.016Z,28.60
2019-03-24T19:44:55.295Z,27.43
2019-03-24T19:47:25.570Z,38.50
2019-03-24T19:49:55.816Z,24.57
2019-03-24T19:52:26.106Z,31.30
2019-03-24T19:54:56.363Z,31.83
2019-03-24T19:57:26.684Z,17.67
2019-03-24T19:59:56.921Z,24.10
2019-03-24T20:02:27.195Z,23.10
2019-03-24T20:04:57.469Z,21.17
2019-03-24T20:07:28.041Z,24.63
2019-03-24T20:09:58.356Z,21.53
2019-03-24T20:12:28.589Z,21.23
2019-03-24T20:14:58.869Z,17.07
2019-03-24T20:17:29.183Z,20.43
2019-03-24T20:19:59.466Z,22.60
2019-03-24T20:22:29.982Z,23.50
2019-03-24T20:25:00.360Z,20.17
2019-03-24T20:27:30.686Z,17.47
2019-03-24T20:30:00.976Z,14.57
2019-03-24T20:32:31.251Z,20.90
2019-03-24T20:35:01.621Z,15.67
2019-03-24T20:37:32.136Z,16.73
2019-03-24T20:40:03.451Z,19.03
2019-03-24T20:42:33.781Z,14.87
2019-03-24T20:45:04.790Z,18.03
2019-03-24T20:47:35.138Z,19.90
2019-03-24T20:50:08.786Z,22.87
2019-03-24T20:52:39.059Z,19.97
2019-03-24T20:55:09.340Z,18.10
2019-03-24T20:57:39.602Z,23.57
2019-03-24T21:00:10.103Z,21.77
2019-03-24T21:02:40.388Z,27.43
2019-03-24T21:05:11.412Z,18.10
2019-03-24T21:07:42.019Z,18.13
2019-03-24T21:10:13.757Z,21.10
2019-03-24T21:12:44.030Z,17.50
2019-03-24T21:15:14.299Z,16.70
2019-03-24T21:17:44.553Z,24.03
2019-03-24T21:20:14.835Z,18.60
2019-03-24T21:22:45.080Z,18.03
2019-03-24T21:25:15.408Z,16.53
2019-03-24T21:27:45.671Z,17.00
2019-03-24T21:30:16.595Z,24.70
2019-03-24T21:32:46.840Z,19.03
2019-03-24T21:35:17.091Z,15.30
2019-03-24T21:37:47.342Z,19.27
2019-03-24T21:40:17.590Z,14.13
2019-03-24T21:42:47.859Z,16.93
2019-03-24T21:45:18.135Z,21.50
2019-03-24T21:47:48.418Z,14.17
2019-03-24T21:50:18.659Z,16.83
2019-03-24T21:52:48.947Z,18.13
2019-03-24T21:55:19.478Z,19.13
2019-03-24T21:57:57.319Z,17.90
2019-03-24T22:00:33.469Z,15.83
2019-03-24T22:03:03.802Z,12.73
2019-03-24T22:05:34.088Z,11.00
2019-03-24T22:08:04.371Z,14.83
2019-03-24T22:10:34.620Z,15.93
2019-03-24T22:13:05.350Z,19.93
2019-03-24T22:15:35.637Z,15.50
2019-03-24T22:18:05.903Z,16.53
2019-03-24T22:20:36.153Z,15.50
2019-03-24T22:23:06.429Z,15.67
2019-03-24T22:25:36.748Z,21.77
2019-03-24T22:28:07.026Z,16.07
2019-03-24T22:30:37.354Z,11.33
2019-03-24T22:33:07.892Z,13.23
2019-03-24T22:35:38.136Z,12.67
2019-03-24T22:38:08.415Z,17.43
2019-03-24T22:40:38.673Z,15.93
2019-03-24T22:43:08.918Z,18.53
2019-03-24T22:45:39.214Z,18.00
2019-03-24T22:48:09.484Z,15.67
2019-03-24T22:50:39.741Z,16.47
2019-03-24T22:53:10.001Z,13.57
2019-03-24T22:55:40.325Z,16.77
2019-03-24T22:58:10.613Z,13.17
2019-03-24T23:00:48.013Z,13.20
2019-03-24T23:03:18.300Z,16.50
2019-03-24T23:05:48.614Z,14.23
2019-03-24T23:08:18.869Z,14.57
2019-03-24T23:10:49.196Z,16.27
2019-03-24T23:13:19.760Z,20.07
2019-03-24T23:15:50.005Z,11.73
2019-03-24T23:18:20.354Z,14.37
2019-03-24T23:20:52.602Z,11.07
2019-03-24T23:23:22.744Z,12.93
2019-03-24T23:25:53.067Z,9.27
2019-03-24T23:28:23.358Z,14.63
2019-03-24T23:30:53.699Z,15.93
2019-03-24T23:33:23.971Z,15.17
2019-03-24T23:35:54.243Z,10.47
2019-03-24T23:38:24.528Z,11.80
2019-03-24T23:40:54.803Z,16.63
2019-03-24T23:43:25.241Z,11.90
2019-03-24T23:45:55.520Z,12.70
2019-03-24T23:48:25.765Z,13.57
2019-03-24T23:50:56.028Z,10.40
2019-03-24T23:53:26.867Z,13.53
2019-03-24T23:55:57.146Z,15.70
2019-03-24T23:58:40.001Z,13.37
